sensor_id;sensor_type;location;lat;lon;timestamp;P1;durP1;ratioP1;P2;durP2;ratioP2
74620;SDS011;64861;47.546;19.254;2022-12-18T00:01:19;20.75;;;12.70;;
74620;SDS011;64861;47.546;19.254;2022-12-18T00:03:47;18.30;;;12.27;;
74620;SDS011;64861;47.546;19.254;2022-12-18T00:06:13;18.52;;;11.68;;
74620;SDS011;64861;47.546;19.254;2022-12-18T00:08:39;20.77;;;12.02;;
74620;SDS011;64861;47.546;19.254;2022-12-18T00:11:06;20.02;;;12.48;;
74620;SDS011;64861;47.546;19.254;2022-12-18T00:13:33;19.00;;;12.43;;
74620;SDS011;64861;47.546;19.254;2022-12-18T00:16:02;18.45;;;12.20;;
74620;SDS011;64861;47.546;19.254;2022-12-18T00:18:29;19.80;;;12.30;;
74620;SDS011;64861;47.546;19.254;2022-12-18T00:20:57;19.35;;;11.98;;
74620;SDS011;64861;47.546;19.254;2022-12-18T00:23:24;17.27;;;11.93;;
74620;SDS011;64861;47.546;19.254;2022-12-18T00:25:49;17.83;;;12.05;;
74620;SDS011;64861;47.546;19.254;2022-12-18T00:28:15;22.63;;;12.95;;
74620;SDS011;64861;47.546;19.254;2022-12-18T00:30:40;19.33;;;12.10;;
74620;SDS011;64861;47.546;19.254;2022-12-18T00:33:06;19.70;;;12.13;;
74620;SDS011;64861;47.546;19.254;2022-12-18T00:35:31;18.48;;;11.88;;
74620;SDS011;64861;47.546;19.254;2022-12-18T00:37:57;21.55;;;12.32;;
74620;SDS011;64861;47.546;19.254;2022-12-18T00:40:22;19.92;;;12.73;;
74620;SDS011;64861;47.546;19.254;2022-12-18T00:42:48;19.77;;;12.27;;
74620;SDS011;64861;47.546;19.254;2022-12-18T00:45:29;18.67;;;11.60;;
74620;SDS011;64861;47.546;19.254;2022-12-18T00:47:55;19.48;;;12.43;;
74620;SDS011;64861;47.546;19.254;2022-12-18T00:50:22;17.98;;;11.40;;
74620;SDS011;64861;47.546;19.254;2022-12-18T00:52:49;20.35;;;11.82;;
74620;SDS011;64861;47.546;19.254;2022-12-18T00:55:15;19.50;;;13.15;;
74620;SDS011;64861;47.546;19.254;2022-12-18T00:57:41;18.17;;;11.35;;
74620;SDS011;64861;47.546;19.254;2022-12-18T01:00:07;20.15;;;11.93;;
74620;SDS011;64861;47.546;19.254;2022-12-18T01:02:34;21.35;;;12.60;;
74620;SDS011;64861;47.546;19.254;2022-12-18T01:05:00;18.85;;;12.25;;
74620;SDS011;64861;47.546;19.254;2022-12-18T01:07:26;19.13;;;11.40;;
74620;SDS011;64861;47.546;19.254;2022-12-18T01:09:51;17.20;;;11.23;;
74620;SDS011;64861;47.546;19.254;2022-12-18T01:12:17;18.85;;;11.45;;
74620;SDS011;64861;47.546;19.254;2022-12-18T01:14:42;16.98;;;11.07;;
74620;SDS011;64861;47.546;19.254;2022-12-18T01:17:07;18.38;;;12.13;;
74620;SDS011;64861;47.546;19.254;2022-12-18T01:19:33;19.50;;;12.07;;
74620;SDS011;64861;47.546;19.254;2022-12-18T01:21:59;16.85;;;11.68;;
74620;SDS011;64861;47.546;19.254;2022-12-18T01:24:24;18.10;;;11.82;;
74620;SDS011;64861;47.546;19.254;2022-12-18T01:26:50;17.73;;;11.43;;
74620;SDS011;64861;47.546;19.254;2022-12-18T01:29:15;19.75;;;12.25;;
74620;SDS011;64861;47.546;19.254;2022-12-18T01:31:40;17.27;;;11.68;;
74620;SDS011;64861;47.546;19.254;2022-12-18T01:34:06;17.13;;;11.35;;
74620;SDS011;64861;47.546;19.254;2022-12-18T01:36:33;18.88;;;11.95;;
74620;SDS011;64861;47.546;19.254;2022-12-18T01:39:01;17.75;;;11.43;;
74620;SDS011;64861;47.546;19.254;2022-12-18T01:41:30;18.70;;;11.75;;
74620;SDS011;64861;47.546;19.254;2022-12-18T01:50:03;19.98;;;11.52;;
74620;SDS011;64861;47.546;19.254;2022-12-18T01:52:35;19.75;;;11.75;;
74620;SDS011;64861;47.546;19.254;2022-12-18T01:55:05;18.10;;;11.88;;
74620;SDS011;64861;47.546;19.254;2022-12-18T01:57:31;17.33;;;11.07;;
74620;SDS011;64861;47.546;19.254;2022-12-18T01:59:59;17.70;;;12.02;;
74620;SDS011;64861;47.546;19.254;2022-12-18T02:02:28;18.38;;;11.65;;
74620;SDS011;64861;47.546;19.254;2022-12-18T02:04:55;17.25;;;11.48;;
74620;SDS011;64861;47.546;19.254;2022-12-18T02:10:11;17.58;;;11.02;;
74620;SDS011;64861;47.546;19.254;2022-12-18T02:15:19;16.33;;;10.30;;
74620;SDS011;64861;47.546;19.254;2022-12-18T02:18:07;17.90;;;11.38;;
74620;SDS011;64861;47.546;19.254;2022-12-18T02:20:40;17.77;;;11.20;;
74620;SDS011;64861;47.546;19.254;2022-12-18T02:28:57;15.98;;;11.05;;
74620;SDS011;64861;47.546;19.254;2022-12-18T02:31:28;18.30;;;11.20;;
74620;SDS011;64861;47.546;19.254;2022-12-18T02:33:58;17.48;;;11.10;;
74620;SDS011;64861;47.546;19.254;2022-12-18T02:36:28;15.90;;;10.82;;
74620;SDS011;64861;47.546;19.254;2022-12-18T02:38:55;17.48;;;11.05;;
74620;SDS011;64861;47.546;19.254;2022-12-18T02:41:22;15.57;;;10.73;;
74620;SDS011;64861;47.546;19.254;2022-12-18T02:43:49;16.65;;;10.80;;
74620;SDS011;64861;47.546;19.254;2022-12-18T02:46:28;17.15;;;11.38;;
74620;SDS011;64861;47.546;19.254;2022-12-18T02:52:16;15.90;;;10.60;;
74620;SDS011;64861;47.546;19.254;2022-12-18T02:55:21;17.60;;;11.23;;
74620;SDS011;64861;47.546;19.254;2022-12-18T02:58:00;16.88;;;11.18;;
74620;SDS011;64861;47.546;19.254;2022-12-18T03:00:33;18.05;;;11.13;;
74620;SDS011;64861;47.546;19.254;2022-12-18T03:03:11;17.33;;;10.93;;
74620;SDS011;64861;47.546;19.254;2022-12-18T03:05:47;16.10;;;10.65;;
74620;SDS011;64861;47.546;19.254;2022-12-18T03:10:49;15.88;;;10.63;;
74620;SDS011;64861;47.546;19.254;2022-12-18T03:13:20;16.80;;;11.32;;
74620;SDS011;64861;47.546;19.254;2022-12-18T03:15:55;16.88;;;10.68;;
74620;SDS011;64861;47.546;19.254;2022-12-18T03:18:24;16.45;;;10.38;;
74620;SDS011;64861;47.546;19.254;2022-12-18T03:20:56;15.55;;;10.60;;
74620;SDS011;64861;47.546;19.254;2022-12-18T03:23:25;15.90;;;10.55;;
74620;SDS011;64861;47.546;19.254;2022-12-18T03:25:55;16.08;;;10.13;;
74620;SDS011;64861;47.546;19.254;2022-12-18T03:28:24;15.68;;;10.63;;
74620;SDS011;64861;47.546;19.254;2022-12-18T03:30:56;16.88;;;10.63;;
74620;SDS011;64861;47.546;19.254;2022-12-18T03:33:29;16.50;;;10.75;;
74620;SDS011;64861;47.546;19.254;2022-12-18T03:35:59;15.93;;;10.43;;
74620;SDS011;64861;47.546;19.254;2022-12-18T03:38:26;15.40;;;10.40;;
74620;SDS011;64861;47.546;19.254;2022-12-18T03:40:59;16.63;;;10.75;;
74620;SDS011;64861;47.546;19.254;2022-12-18T03:49:36;16.38;;;10.68;;
74620;SDS011;64861;47.546;19.254;2022-12-18T03:52:17;15.70;;;10.68;;
74620;SDS011;64861;47.546;19.254;2022-12-18T03:54:47;15.15;;;10.18;;
74620;SDS011;64861;47.546;19.254;2022-12-18T03:57:14;16.15;;;10.60;;
74620;SDS011;64861;47.546;19.254;2022-12-18T03:59:43;16.77;;;10.88;;
74620;SDS011;64861;47.546;19.254;2022-12-18T04:02:11;15.38;;;10.35;;
74620;SDS011;64861;47.546;19.254;2022-12-18T04:04:37;15.65;;;10.65;;
74620;SDS011;64861;47.546;19.254;2022-12-18T04:07:05;15.85;;;10.43;;
74620;SDS011;64861;47.546;19.254;2022-12-18T04:09:32;16.73;;;10.73;;
74620;SDS011;64861;47.546;19.254;2022-12-18T04:11:59;14.45;;;10.25;;
74620;SDS011;64861;47.546;19.254;2022-12-18T04:14:24;17.95;;;10.38;;
74620;SDS011;64861;47.546;19.254;2022-12-18T04:16:50;14.82;;;9.85;;
74620;SDS011;64861;47.546;19.254;2022-12-18T04:19:15;15.25;;;10.43;;
74620;SDS011;64861;47.546;19.254;2022-12-18T04:21:41;15.70;;;10.00;;
74620;SDS011;64861;47.546;19.254;2022-12-18T04:24:06;15.77;;;10.32;;
74620;SDS011;64861;47.546;19.254;2022-12-18T04:26:32;17.42;;;10.32;;
74620;SDS011;64861;47.546;19.254;2022-12-18T04:28:57;14.60;;;10.18;;
74620;SDS011;64861;47.546;19.254;2022-12-18T04:31:23;16.15;;;10.48;;
74620;SDS011;64861;47.546;19.254;2022-12-18T04:33:48;16.83;;;10.35;;
74620;SDS011;64861;47.546;19.254;2022-12-18T04:36:14;14.73;;;9.88;;
74620;SDS011;64861;47.546;19.254;2022-12-18T04:38:39;14.77;;;10.13;;
74620;SDS011;64861;47.546;19.254;2022-12-18T04:41:05;15.95;;;9.77;;
74620;SDS011;64861;47.546;19.254;2022-12-18T04:43:30;14.75;;;9.60;;
74620;SDS011;64861;47.546;19.254;2022-12-18T04:46:01;16.42;;;10.80;;
74620;SDS011;64861;47.546;19.254;2022-12-18T04:50:57;15.90;;;10.20;;
74620;SDS011;64861;47.546;19.254;2022-12-18T04:53:23;13.77;;;9.30;;
74620;SDS011;64861;47.546;19.254;2022-12-18T04:55:48;16.48;;;10.13;;
74620;SDS011;64861;47.546;19.254;2022-12-18T04:58:14;16.70;;;10.00;;
74620;SDS011;64861;47.546;19.254;2022-12-18T05:00:39;14.10;;;9.57;;
74620;SDS011;64861;47.546;19.254;2022-12-18T05:03:05;15.00;;;9.90;;
74620;SDS011;64861;47.546;19.254;2022-12-18T05:05:30;15.18;;;9.95;;
74620;SDS011;64861;47.546;19.254;2022-12-18T05:07:56;15.38;;;9.95;;
74620;SDS011;64861;47.546;19.254;2022-12-18T05:10:21;15.80;;;10.32;;
74620;SDS011;64861;47.546;19.254;2022-12-18T05:12:47;14.60;;;9.95;;
74620;SDS011;64861;47.546;19.254;2022-12-18T05:15:31;16.13;;;10.10;;
74620;SDS011;64861;47.546;19.254;2022-12-18T05:17:57;15.23;;;9.93;;
74620;SDS011;64861;47.546;19.254;2022-12-18T05:20:24;14.35;;;9.40;;
74620;SDS011;64861;47.546;19.254;2022-12-18T05:22:50;15.23;;;9.98;;
74620;SDS011;64861;47.546;19.254;2022-12-18T05:25:16;15.07;;;9.77;;
74620;SDS011;64861;47.546;19.254;2022-12-18T05:27:42;14.18;;;9.35;;
74620;SDS011;64861;47.546;19.254;2022-12-18T05:30:08;14.82;;;9.73;;
74620;SDS011;64861;47.546;19.254;2022-12-18T05:32:33;15.18;;;9.75;;
74620;SDS011;64861;47.546;19.254;2022-12-18T05:34:59;14.88;;;9.50;;
74620;SDS011;64861;47.546;19.254;2022-12-18T05:37:25;14.75;;;9.57;;
74620;SDS011;64861;47.546;19.254;2022-12-18T05:39:50;14.98;;;9.77;;
74620;SDS011;64861;47.546;19.254;2022-12-18T05:42:16;14.25;;;9.18;;
74620;SDS011;64861;47.546;19.254;2022-12-18T05:44:41;14.50;;;9.48;;
74620;SDS011;64861;47.546;19.254;2022-12-18T05:47:08;15.88;;;9.80;;
74620;SDS011;64861;47.546;19.254;2022-12-18T05:49:34;15.57;;;10.07;;
74620;SDS011;64861;47.546;19.254;2022-12-18T05:51:59;14.88;;;9.82;;
74620;SDS011;64861;47.546;19.254;2022-12-18T05:54:27;14.32;;;9.05;;
74620;SDS011;64861;47.546;19.254;2022-12-18T05:56:53;14.38;;;9.20;;
74620;SDS011;64861;47.546;19.254;2022-12-18T05:59:19;15.82;;;9.98;;
74620;SDS011;64861;47.546;19.254;2022-12-18T06:01:44;15.27;;;9.82;;
74620;SDS011;64861;47.546;19.254;2022-12-18T06:04:10;14.82;;;8.85;;
74620;SDS011;64861;47.546;19.254;2022-12-18T06:06:36;15.40;;;9.43;;
74620;SDS011;64861;47.546;19.254;2022-12-18T06:09:02;15.25;;;9.50;;
74620;SDS011;64861;47.546;19.254;2022-12-18T06:11:33;13.82;;;9.52;;
74620;SDS011;64861;47.546;19.254;2022-12-18T06:14:00;14.05;;;9.50;;
74620;SDS011;64861;47.546;19.254;2022-12-18T06:16:27;14.85;;;9.45;;
74620;SDS011;64861;47.546;19.254;2022-12-18T06:18:53;14.23;;;9.30;;
74620;SDS011;64861;47.546;19.254;2022-12-18T06:21:21;15.02;;;9.30;;
74620;SDS011;64861;47.546;19.254;2022-12-18T06:23:46;14.93;;;9.48;;
74620;SDS011;64861;47.546;19.254;2022-12-18T06:26:12;13.38;;;9.10;;
74620;SDS011;64861;47.546;19.254;2022-12-18T06:28:38;14.70;;;9.32;;
74620;SDS011;64861;47.546;19.254;2022-12-18T06:31:04;13.82;;;9.27;;
74620;SDS011;64861;47.546;19.254;2022-12-18T06:33:30;15.25;;;9.73;;
74620;SDS011;64861;47.546;19.254;2022-12-18T06:36:03;15.45;;;9.68;;
74620;SDS011;64861;47.546;19.254;2022-12-18T06:38:33;14.85;;;9.55;;
74620;SDS011;64861;47.546;19.254;2022-12-18T06:41:00;14.18;;;9.35;;
74620;SDS011;64861;47.546;19.254;2022-12-18T06:43:25;14.90;;;9.63;;
74620;SDS011;64861;47.546;19.254;2022-12-18T06:45:51;15.38;;;9.50;;
74620;SDS011;64861;47.546;19.254;2022-12-18T06:48:25;12.88;;;8.85;;
74620;SDS011;64861;47.546;19.254;2022-12-18T06:50:51;24.83;;;10.45;;
74620;SDS011;64861;47.546;19.254;2022-12-18T06:53:16;19.00;;;9.60;;
74620;SDS011;64861;47.546;19.254;2022-12-18T06:55:42;17.55;;;8.52;;
74620;SDS011;64861;47.546;19.254;2022-12-18T06:58:08;18.63;;;9.50;;
74620;SDS011;64861;47.546;19.254;2022-12-18T07:00:33;20.35;;;9.13;;
74620;SDS011;64861;47.546;19.254;2022-12-18T07:02:59;15.15;;;8.60;;
74620;SDS011;64861;47.546;19.254;2022-12-18T07:05:24;13.80;;;8.02;;
74620;SDS011;64861;47.546;19.254;2022-12-18T07:07:49;17.00;;;9.30;;
74620;SDS011;64861;47.546;19.254;2022-12-18T07:10:15;13.63;;;8.68;;
74620;SDS011;64861;47.546;19.254;2022-12-18T07:12:40;15.68;;;8.82;;
74620;SDS011;64861;47.546;19.254;2022-12-18T07:15:06;19.38;;;9.27;;
74620;SDS011;64861;47.546;19.254;2022-12-18T07:17:32;17.38;;;9.05;;
74620;SDS011;64861;47.546;19.254;2022-12-18T07:19:57;21.73;;;9.43;;
74620;SDS011;64861;47.546;19.254;2022-12-18T07:22:24;24.00;;;9.55;;
74620;SDS011;64861;47.546;19.254;2022-12-18T07:24:52;22.98;;;9.52;;
74620;SDS011;64861;47.546;19.254;2022-12-18T07:27:18;25.40;;;9.70;;
74620;SDS011;64861;47.546;19.254;2022-12-18T07:29:44;25.55;;;9.43;;
74620;SDS011;64861;47.546;19.254;2022-12-18T07:32:09;25.95;;;10.05;;
74620;SDS011;64861;47.546;19.254;2022-12-18T07:34:36;19.23;;;9.20;;
74620;SDS011;64861;47.546;19.254;2022-12-18T07:37:01;21.25;;;9.18;;
74620;SDS011;64861;47.546;19.254;2022-12-18T07:39:28;17.83;;;9.18;;
74620;SDS011;64861;47.546;19.254;2022-12-18T07:41:54;21.55;;;9.95;;
74620;SDS011;64861;47.546;19.254;2022-12-18T07:44:38;19.88;;;10.75;;
74620;SDS011;64861;47.546;19.254;2022-12-18T07:47:04;28.92;;;14.05;;
74620;SDS011;64861;47.546;19.254;2022-12-18T07:49:31;39.70;;;25.67;;
74620;SDS011;64861;47.546;19.254;2022-12-18T07:51:57;46.38;;;29.77;;
74620;SDS011;64861;47.546;19.254;2022-12-18T07:54:23;44.97;;;27.13;;
74620;SDS011;64861;47.546;19.254;2022-12-18T07:56:50;45.45;;;27.17;;
74620;SDS011;64861;47.546;19.254;2022-12-18T07:59:16;44.20;;;28.88;;
74620;SDS011;64861;47.546;19.254;2022-12-18T08:01:42;36.97;;;25.85;;
74620;SDS011;64861;47.546;19.254;2022-12-18T08:04:07;36.85;;;25.98;;
74620;SDS011;64861;47.546;19.254;2022-12-18T08:06:33;43.70;;;26.48;;
74620;SDS011;64861;47.546;19.254;2022-12-18T08:08:58;39.13;;;24.13;;
74620;SDS011;64861;47.546;19.254;2022-12-18T08:11:25;37.78;;;24.73;;
74620;SDS011;64861;47.546;19.254;2022-12-18T08:13:52;35.65;;;23.63;;
74620;SDS011;64861;47.546;19.254;2022-12-18T08:16:18;32.42;;;23.02;;
74620;SDS011;64861;47.546;19.254;2022-12-18T08:18:44;37.10;;;23.10;;
74620;SDS011;64861;47.546;19.254;2022-12-18T08:21:14;35.67;;;23.05;;
74620;SDS011;64861;47.546;19.254;2022-12-18T08:23:42;32.65;;;21.38;;
74620;SDS011;64861;47.546;19.254;2022-12-18T08:26:09;33.17;;;20.92;;
74620;SDS011;64861;47.546;19.254;2022-12-18T08:28:36;36.92;;;20.77;;
74620;SDS011;64861;47.546;19.254;2022-12-18T08:31:01;35.22;;;20.38;;
74620;SDS011;64861;47.546;19.254;2022-12-18T08:33:27;32.75;;;19.58;;
74620;SDS011;64861;47.546;19.254;2022-12-18T08:35:52;40.45;;;20.20;;
74620;SDS011;64861;47.546;19.254;2022-12-18T08:38:18;28.83;;;18.80;;
74620;SDS011;64861;47.546;19.254;2022-12-18T08:40:43;34.15;;;17.77;;
74620;SDS011;64861;47.546;19.254;2022-12-18T08:43:09;35.03;;;18.15;;
74620;SDS011;64861;47.546;19.254;2022-12-18T08:45:54;30.77;;;18.30;;
74620;SDS011;64861;47.546;19.254;2022-12-18T08:48:19;30.35;;;17.65;;
74620;SDS011;64861;47.546;19.254;2022-12-18T08:50:57;28.15;;;16.55;;
74620;SDS011;64861;47.546;19.254;2022-12-18T08:53:24;34.67;;;16.83;;
74620;SDS011;64861;47.546;19.254;2022-12-18T08:55:52;29.52;;;16.13;;
74620;SDS011;64861;47.546;19.254;2022-12-18T08:58:18;33.08;;;17.05;;
74620;SDS011;64861;47.546;19.254;2022-12-18T09:00:44;35.92;;;16.08;;
74620;SDS011;64861;47.546;19.254;2022-12-18T09:03:11;37.60;;;14.52;;
74620;SDS011;64861;47.546;19.254;2022-12-18T09:05:37;36.65;;;15.13;;
74620;SDS011;64861;47.546;19.254;2022-12-18T09:08:03;46.30;;;16.60;;
74620;SDS011;64861;47.546;19.254;2022-12-18T09:10:29;30.08;;;16.05;;
74620;SDS011;64861;47.546;19.254;2022-12-18T09:12:54;31.27;;;15.15;;
74620;SDS011;64861;47.546;19.254;2022-12-18T09:15:21;26.77;;;14.30;;
74620;SDS011;64861;47.546;19.254;2022-12-18T09:17:46;29.63;;;13.70;;
74620;SDS011;64861;47.546;19.254;2022-12-18T09:20:13;27.10;;;13.57;;
74620;SDS011;64861;47.546;19.254;2022-12-18T09:22:39;25.58;;;13.32;;
74620;SDS011;64861;47.546;19.254;2022-12-18T09:25:04;24.13;;;13.02;;
74620;SDS011;64861;47.546;19.254;2022-12-18T09:27:32;28.98;;;13.63;;
74620;SDS011;64861;47.546;19.254;2022-12-18T09:29:58;21.60;;;12.40;;
74620;SDS011;64861;47.546;19.254;2022-12-18T09:32:24;27.20;;;12.00;;
74620;SDS011;64861;47.546;19.254;2022-12-18T09:34:49;21.42;;;11.95;;
74620;SDS011;64861;47.546;19.254;2022-12-18T09:37:15;25.92;;;11.50;;
74620;SDS011;64861;47.546;19.254;2022-12-18T09:39:40;23.13;;;12.20;;
74620;SDS011;64861;47.546;19.254;2022-12-18T09:42:06;19.15;;;11.80;;
74620;SDS011;64861;47.546;19.254;2022-12-18T09:44:50;24.65;;;11.63;;
74620;SDS011;64861;47.546;19.254;2022-12-18T09:47:28;22.90;;;11.30;;
74620;SDS011;64861;47.546;19.254;2022-12-18T09:50:01;18.92;;;11.48;;
74620;SDS011;64861;47.546;19.254;2022-12-18T09:52:32;22.95;;;12.65;;
74620;SDS011;64861;47.546;19.254;2022-12-18T09:57:42;19.90;;;11.15;;
74620;SDS011;64861;47.546;19.254;2022-12-18T10:00:21;17.35;;;11.23;;
74620;SDS011;64861;47.546;19.254;2022-12-18T10:02:54;20.80;;;11.18;;
74620;SDS011;64861;47.546;19.254;2022-12-18T10:08:36;17.83;;;10.25;;
74620;SDS011;64861;47.546;19.254;2022-12-18T10:14:09;16.95;;;9.73;;
74620;SDS011;64861;47.546;19.254;2022-12-18T10:22:18;14.85;;;9.95;;
74620;SDS011;64861;47.546;19.254;2022-12-18T10:27:58;15.68;;;10.15;;
74620;SDS011;64861;47.546;19.254;2022-12-18T10:30:32;15.75;;;9.68;;
74620;SDS011;64861;47.546;19.254;2022-12-18T10:33:01;24.50;;;10.52;;
74620;SDS011;64861;47.546;19.254;2022-12-18T10:35:28;28.27;;;10.43;;
74620;SDS011;64861;47.546;19.254;2022-12-18T10:38:35;17.38;;;9.73;;
74620;SDS011;64861;47.546;19.254;2022-12-18T10:40:52;19.27;;;9.73;;
74620;SDS011;64861;47.546;19.254;2022-12-18T10:43:20;62.20;;;12.63;;
74620;SDS011;64861;47.546;19.254;2022-12-18T10:48:41;51.42;;;11.45;;
74620;SDS011;64861;47.546;19.254;2022-12-18T10:51:46;41.00;;;10.18;;
74620;SDS011;64861;47.546;19.254;2022-12-18T10:54:18;43.20;;;10.23;;
74620;SDS011;64861;47.546;19.254;2022-12-18T10:56:47;48.30;;;10.30;;
74620;SDS011;64861;47.546;19.254;2022-12-18T10:59:14;39.10;;;10.48;;
74620;SDS011;64861;47.546;19.254;2022-12-18T11:04:27;43.22;;;9.70;;
74620;SDS011;64861;47.546;19.254;2022-12-18T11:07:05;33.55;;;9.77;;
74620;SDS011;64861;47.546;19.254;2022-12-18T11:09:36;31.48;;;10.07;;
74620;SDS011;64861;47.546;19.254;2022-12-18T11:12:16;41.58;;;9.82;;
74620;SDS011;64861;47.546;19.254;2022-12-18T11:14:48;43.00;;;9.60;;
74620;SDS011;64861;47.546;19.254;2022-12-18T11:17:20;31.50;;;9.18;;
74620;SDS011;64861;47.546;19.254;2022-12-18T11:20:01;26.90;;;9.55;;
74620;SDS011;64861;47.546;19.254;2022-12-18T11:22:55;23.88;;;9.23;;
74620;SDS011;64861;47.546;19.254;2022-12-18T11:25:23;26.48;;;9.43;;
74620;SDS011;64861;47.546;19.254;2022-12-18T11:27:51;38.78;;;10.05;;
74620;SDS011;64861;47.546;19.254;2022-12-18T11:32:44;35.05;;;9.30;;
74620;SDS011;64861;47.546;19.254;2022-12-18T11:35:19;30.08;;;9.75;;
74620;SDS011;64861;47.546;19.254;2022-12-18T11:37:53;33.40;;;9.80;;
74620;SDS011;64861;47.546;19.254;2022-12-18T11:40:42;28.50;;;9.70;;
74620;SDS011;64861;47.546;19.254;2022-12-18T11:43:19;27.85;;;9.23;;
74620;SDS011;64861;47.546;19.254;2022-12-18T11:46:10;32.78;;;10.00;;
74620;SDS011;64861;47.546;19.254;2022-12-18T11:51:29;24.52;;;9.02;;
74620;SDS011;64861;47.546;19.254;2022-12-18T11:54:00;29.13;;;9.88;;
74620;SDS011;64861;47.546;19.254;2022-12-18T11:56:31;29.55;;;9.02;;
74620;SDS011;64861;47.546;19.254;2022-12-18T12:04:44;26.85;;;9.25;;
74620;SDS011;64861;47.546;19.254;2022-12-18T12:26:15;22.70;;;8.32;;
74620;SDS011;64861;47.546;19.254;2022-12-18T12:32:03;27.30;;;8.85;;
74620;SDS011;64861;47.546;19.254;2022-12-18T12:39:32;16.63;;;8.02;;
74620;SDS011;64861;47.546;19.254;2022-12-18T12:42:05;25.55;;;8.63;;
74620;SDS011;64861;47.546;19.254;2022-12-18T12:45:16;24.63;;;8.80;;
74620;SDS011;64861;47.546;19.254;2022-12-18T12:47:47;27.88;;;9.13;;
74620;SDS011;64861;47.546;19.254;2022-12-18T12:50:16;23.40;;;8.35;;
74620;SDS011;64861;47.546;19.254;2022-12-18T12:52:49;16.80;;;7.85;;
74620;SDS011;64861;47.546;19.254;2022-12-18T12:55:19;19.23;;;8.52;;
74620;SDS011;64861;47.546;19.254;2022-12-18T12:58:05;17.45;;;8.70;;
74620;SDS011;64861;47.546;19.254;2022-12-18T13:00:54;18.27;;;8.60;;
74620;SDS011;64861;47.546;19.254;2022-12-18T13:09:00;17.67;;;7.80;;
74620;SDS011;64861;47.546;19.254;2022-12-18T13:11:47;15.63;;;7.78;;
74620;SDS011;64861;47.546;19.254;2022-12-18T13:14:37;16.80;;;8.30;;
74620;SDS011;64861;47.546;19.254;2022-12-18T13:19:49;21.05;;;8.70;;
74620;SDS011;64861;47.546;19.254;2022-12-18T13:22:35;20.27;;;8.35;;
74620;SDS011;64861;47.546;19.254;2022-12-18T13:25:26;18.55;;;8.13;;
74620;SDS011;64861;47.546;19.254;2022-12-18T13:28:06;18.38;;;8.40;;
74620;SDS011;64861;47.546;19.254;2022-12-18T13:46:16;17.52;;;8.52;;
74620;SDS011;64861;47.546;19.254;2022-12-18T13:49:05;16.85;;;8.60;;
74620;SDS011;64861;47.546;19.254;2022-12-18T13:51:40;21.50;;;8.15;;
74620;SDS011;64861;47.546;19.254;2022-12-18T13:56:48;22.77;;;8.48;;
74620;SDS011;64861;47.546;19.254;2022-12-18T13:59:16;14.70;;;7.45;;
74620;SDS011;64861;47.546;19.254;2022-12-18T14:01:42;18.42;;;7.82;;
74620;SDS011;64861;47.546;19.254;2022-12-18T14:04:10;19.50;;;7.57;;
74620;SDS011;64861;47.546;19.254;2022-12-18T14:06:46;14.38;;;7.65;;
74620;SDS011;64861;47.546;19.254;2022-12-18T14:09:35;15.13;;;7.13;;
74620;SDS011;64861;47.546;19.254;2022-12-18T14:12:02;11.52;;;6.65;;
74620;SDS011;64861;47.546;19.254;2022-12-18T14:14:47;16.98;;;7.45;;
74620;SDS011;64861;47.546;19.254;2022-12-18T14:17:16;12.48;;;7.05;;
74620;SDS011;64861;47.546;19.254;2022-12-18T14:19:47;17.63;;;7.18;;
74620;SDS011;64861;47.546;19.254;2022-12-18T14:22:16;15.40;;;7.70;;
74620;SDS011;64861;47.546;19.254;2022-12-18T14:24:44;18.70;;;7.57;;
74620;SDS011;64861;47.546;19.254;2022-12-18T14:27:28;16.85;;;7.70;;
74620;SDS011;64861;47.546;19.254;2022-12-18T14:32:19;15.10;;;7.43;;
74620;SDS011;64861;47.546;19.254;2022-12-18T14:34:49;18.42;;;6.78;;
74620;SDS011;64861;47.546;19.254;2022-12-18T14:37:17;13.98;;;6.57;;
74620;SDS011;64861;47.546;19.254;2022-12-18T14:40:19;16.42;;;7.07;;
74620;SDS011;64861;47.546;19.254;2022-12-18T14:42:38;13.15;;;7.07;;
74620;SDS011;64861;47.546;19.254;2022-12-18T14:48:08;14.73;;;6.78;;
74620;SDS011;64861;47.546;19.254;2022-12-18T14:50:38;12.90;;;7.35;;
74620;SDS011;64861;47.546;19.254;2022-12-18T14:53:04;12.55;;;6.80;;
74620;SDS011;64861;47.546;19.254;2022-12-18T14:55:45;14.45;;;7.15;;
74620;SDS011;64861;47.546;19.254;2022-12-18T14:58:13;16.05;;;7.18;;
74620;SDS011;64861;47.546;19.254;2022-12-18T15:00:41;14.70;;;7.20;;
74620;SDS011;64861;47.546;19.254;2022-12-18T15:03:07;15.90;;;7.35;;
74620;SDS011;64861;47.546;19.254;2022-12-18T15:05:34;15.25;;;7.30;;
74620;SDS011;64861;47.546;19.254;2022-12-18T15:08:00;17.30;;;7.70;;
74620;SDS011;64861;47.546;19.254;2022-12-18T15:10:28;12.70;;;7.25;;
74620;SDS011;64861;47.546;19.254;2022-12-18T15:18:00;13.73;;;7.07;;
74620;SDS011;64861;47.546;19.254;2022-12-18T15:20:26;12.52;;;7.28;;
74620;SDS011;64861;47.546;19.254;2022-12-18T15:22:52;13.73;;;7.30;;
74620;SDS011;64861;47.546;19.254;2022-12-18T15:25:27;13.68;;;6.88;;
74620;SDS011;64861;47.546;19.254;2022-12-18T15:27:59;15.82;;;7.28;;
74620;SDS011;64861;47.546;19.254;2022-12-18T15:30:25;13.15;;;7.47;;
74620;SDS011;64861;47.546;19.254;2022-12-18T15:32:51;13.82;;;7.00;;
74620;SDS011;64861;47.546;19.254;2022-12-18T15:35:37;12.40;;;6.57;;
74620;SDS011;64861;47.546;19.254;2022-12-18T15:38:02;13.25;;;7.35;;
74620;SDS011;64861;47.546;19.254;2022-12-18T15:40:28;13.25;;;7.13;;
74620;SDS011;64861;47.546;19.254;2022-12-18T15:42:53;12.07;;;7.07;;
74620;SDS011;64861;47.546;19.254;2022-12-18T15:45:38;15.90;;;7.03;;
74620;SDS011;64861;47.546;19.254;2022-12-18T15:48:11;21.95;;;7.18;;
74620;SDS011;64861;47.546;19.254;2022-12-18T15:50:45;37.25;;;8.38;;
74620;SDS011;64861;47.546;19.254;2022-12-18T15:53:10;18.23;;;7.65;;
74620;SDS011;64861;47.546;19.254;2022-12-18T15:55:36;20.52;;;7.13;;
74620;SDS011;64861;47.546;19.254;2022-12-18T15:58:41;15.45;;;7.75;;
74620;SDS011;64861;47.546;19.254;2022-12-18T16:01:07;15.32;;;6.78;;
74620;SDS011;64861;47.546;19.254;2022-12-18T16:03:34;17.88;;;6.80;;
74620;SDS011;64861;47.546;19.254;2022-12-18T16:06:00;19.65;;;6.97;;
74620;SDS011;64861;47.546;19.254;2022-12-18T16:08:27;14.65;;;7.20;;
74620;SDS011;64861;47.546;19.254;2022-12-18T16:10:54;13.60;;;7.32;;
74620;SDS011;64861;47.546;19.254;2022-12-18T16:13:20;13.88;;;7.40;;
74620;SDS011;64861;47.546;19.254;2022-12-18T16:15:46;15.60;;;7.57;;
74620;SDS011;64861;47.546;19.254;2022-12-18T16:18:12;14.20;;;7.45;;
74620;SDS011;64861;47.546;19.254;2022-12-18T16:20:37;15.68;;;7.55;;
74620;SDS011;64861;47.546;19.254;2022-12-18T16:23:03;12.70;;;7.35;;
74620;SDS011;64861;47.546;19.254;2022-12-18T16:25:29;13.73;;;7.40;;
74620;SDS011;64861;47.546;19.254;2022-12-18T16:27:55;15.30;;;7.88;;
74620;SDS011;64861;47.546;19.254;2022-12-18T16:30:22;12.88;;;7.38;;
74620;SDS011;64861;47.546;19.254;2022-12-18T16:32:52;15.32;;;7.32;;
74620;SDS011;64861;47.546;19.254;2022-12-18T16:35:18;14.73;;;7.97;;
74620;SDS011;64861;47.546;19.254;2022-12-18T16:37:44;12.57;;;7.78;;
74620;SDS011;64861;47.546;19.254;2022-12-18T16:40:10;14.80;;;7.78;;